TFM - Tactical Decision Aid (Experimental) INFO Settings
ID: Runway Winds: CIG/VIS Threshold: METAR Board: Map:

KATL - Atlanta-Hartsfield Jackson Intl

Updated at: 1423 UTC 07 Dec 2016
Latest TAF at: 1335 UTC 07 Dec 2016

TAF Board

Time1352Z07/15Z07/16Z07/17Z07/18Z07/19Z07/20Z07/21Z07/22Z07/23Z08/00Z08/01Z08/02Z08/03Z
TypeOBSPRVL
  [TEMP]  
PRVL
  [TEMP]  
PRVLPRVLPRVLPRVLPRVLPRVLPRVLPRVLPRVLPRVLPRVL
VIS10>6>6>6>6>6>6>6>6>6>6>6>6>6
CIG----
  [--]  
--
  [--]  
----------------------
CoverFEWFEW
  [SCT]  
FEW
  [SCT]  
SCTSCTSCTSCTSCTSCTSCTSCTSCTSCTSCT
FltCatVFRVFR
  [VFR]  
VFR
  [VFR]  
VFRVFRVFRVFRVFRVFRVFRVFRVFRVFRVFR
WX----
  [--]  
--
  [--]  
----------------------
WDir320310
[310]
310
[310]
280280280280280280280280280280280
WSpd88
  [8]  
8
  [8]  
66666666666
WGst----
  [--]  
--
  [--]  
----------------------
TAF
KATL 071335Z 0714/0818 31008KT P6SM FEW015
  TEMPO 0715/0717 SCT025
  FM071700 28006KT P6SM SCT035
  FM080800 31009KT P6SM SCT050 BKN100
  FM081500 34014G24KT P6SM FEW050 SCT120


METAR
KATL 071352Z 32008KT 10SM FEW012 08/06 A3004 RMK AO2 SLP173 T00780056

TAF/METAR Board Legend

Potential Impact
  None Marginal Slight Moderate High
Visibility (sm) >5 3≤X≤5 1≤X<3 0.5≤X<1 <0.5
Ceiling (100 ft) >30 10≤X≤30 4≤X<10 2≤X<4 <2
Wind Speed (kt) <10 10≤X<20 20≤X<30 ≥30
Wind Gust (kt) <15 15≤X<25 25≤X<35 ≥35
Weather No Wx Reported VCTS -TS,-FZRA TS,FZRA +TS,+FZRA